Andover, Maine
Current Conditions -  °F | °C
As of 10:12 PM on Sunday 23 Nov 2014 (Local Time) from KBML Reporting Station
Haze Haze  
Wind Chill: 31°   Ceiling: 100
Heat Index: 31°   Visibility: 4mi
Dew Point: 29°   Wind: 0mph
Humidity: 92%   Direction: NA
Pressure: 30.07"   Gusts: NA
Location:  44.64°N, 70.75°W
Report Text: KBML 240312Z AUTO 00000KT 4SM BR BKN001 M01/M02 A3007 RMK AO2 T10061017
Loading
Personal Weather Stations






























Interactive Weather Map New forecast layout! Learn more

10-Day Weather Forecast

Advertisements
Track Severe Weather on mobile